Accueil
METAR-TAF:

METAR-TAF

Aéroports :

Base aérienne 107 Villacoublay

Villacoublay, France

latitude: 48-46N, longitude: 002-12E, altitude: 177 m

Observation

Le bulletin a été fait il y a 34 minutes, à 02:30 UTC
Vent 6 kt de nord/nord-ouest
Température 13°C
Humidité 77%
Pression 1027 hPa
Visibilité 10 km ou plus
pas de nuages en-dessous de 1500 mètres et pas de cumulonimbus.

METAR: LFPV 060230Z AUTO 34006KT CAVOK 13/09 Q1027 NOSIG

Heure: 05:04 (03:04 UTC)

Prévision

Le bulletin a été fait il y a 1 heure et 4 minutes, à 02:00 UTC
Prévision valable du 06 à 03 UTC au 07 à 03 UTC
Vent 5 kt de nord
Visibilité 10 km ou plus
pas de nuages en-dessous de 1500 mètres et pas de cumulonimbus.

TAF: LFPV 060200Z 0603/0703 35005KT CAVOK TX26/0615Z TN14/0604Z

Observations et prévisions météorologiques de plus de 4000 aéroports (messages METAR et TAF).

Les stations disponibles sont représentées par des disques jaunes et rouges sur la carte.

Passer la souris dessus pour voir le nom de la station.

Cliquer dessus pour voir les observations et prévisions météorologiques.

Pour changer de carte: cliquez sur les boutons verts avec une croix noire pour zoomer, sur le bouton vert avec un tiret pour effectuer un zoom arrière, ou sur les flèches vertes pour les cartes adjacentes.


METAR-TAF: